Time;durP1;ratioP1;P1;durP2;ratioP2;P2;SDS_P1;SDS_P2;PMS_P1;PMS_P2;Temp;Humidity;BMP_temperature;BMP_pressure;BME280_temperature;BME280_humidity;BME280_pressure;Samples;Min_cycle;Max_cycle;Signal;HPM_P1;HPM_P2
2021/06/06 00:01:03;;;;;;;13.40;5.45;;;;;;;15.13;58.38;100585.97;125749;1092;22800;-62
2021/06/06 00:03:35;;;;;;;11.53;5.30;;;;;;;15.10;58.56;100586.99;125736;1093;22907;-61
2021/06/06 00:06:09;;;;;;;13.50;5.30;;;;;;;15.02;59.87;100591.52;125754;1093;23203;-61
2021/06/06 00:08:40;;;;;;;12.60;5.75;;;;;;;14.88;59.71;100581.20;125891;1093;22822;-60
2021/06/06 00:11:13;;;;;;;10.63;4.63;;;;;;;14.84;59.59;100589.09;125974;1093;25941;-61
2021/06/06 00:13:45;;;;;;;13.80;4.90;;;;;;;14.78;59.49;100584.70;126083;1093;22841;-61
2021/06/06 00:16:18;;;;;;;11.10;4.90;;;;;;;14.72;59.75;100593.10;125936;1093;27185;-58
2021/06/06 00:18:49;;;;;;;11.93;4.60;;;;;;;14.66;59.67;100588.70;125889;1093;25443;-59
2021/06/06 00:21:20;;;;;;;11.43;4.93;;;;;;;14.60;59.70;100583.05;126108;1093;22767;-63
2021/06/06 00:23:50;;;;;;;13.40;5.05;;;;;;;14.56;59.80;100590.93;126027;1093;22853;-62
2021/06/06 00:26:20;;;;;;;9.58;4.23;;;;;;;14.52;59.90;100593.20;125994;1093;22784;-61
2021/06/06 00:28:51;;;;;;;14.55;5.00;;;;;;;14.50;60.19;100587.30;125982;1092;27211;-61
2021/06/06 00:31:20;;;;;;;;;;;;;;;14.44;59.95;100590.05;126016;1092;24462;-64
2021/06/06 00:33:50;;;;;;;14.60;4.85;;;;;;;14.39;60.24;100587.20;125884;1093;24572;-61
2021/06/06 00:36:21;;;;;;;13.13;5.20;;;;;;;14.33;60.54;100589.19;125873;1092;22803;-61
2021/06/06 00:38:53;;;;;;;14.03;4.90;;;;;;;14.27;60.57;100586.30;125942;1093;22790;-60
2021/06/06 00:41:25;;;;;;;18.70;5.40;;;;;;;14.22;60.64;100586.23;125837;1093;22897;-61
2021/06/06 00:43:56;;;;;;;14.67;4.97;;;;;;;14.14;60.60;100585.14;125898;1093;22791;-60
2021/06/06 00:46:29;;;;;;;13.90;5.40;;;;;;;14.06;60.91;100587.63;126000;1093;22783;-61
2021/06/06 00:49:00;;;;;;;14.20;5.10;;;;;;;14.01;60.89;100596.00;126161;1093;22864;-62
2021/06/06 00:51:36;;;;;;;15.03;5.27;;;;;;;13.94;61.28;100593.61;125868;1093;26811;-63
2021/06/06 00:54:12;;;;;;;14.30;6.30;;;;;;;13.87;61.45;100591.22;126017;1093;25951;-60
2021/06/06 00:56:46;;;;;;;14.07;5.57;;;;;;;13.84;61.25;100595.81;125924;1093;28350;-60
2021/06/06 00:59:23;;;;;;;11.57;5.50;;;;;;;13.85;61.48;100590.95;125863;1093;22790;-58
2021/06/06 01:01:54;;;;;;;14.53;6.03;;;;;;;13.81;61.37;100596.78;125874;1093;22787;-60
2021/06/06 01:04:24;;;;;;;12.85;4.55;;;;;;;13.79;61.36;100588.09;126276;1093;22856;-61
2021/06/06 01:06:55;;;;;;;16.47;5.33;;;;;;;13.74;61.76;100589.56;125920;1093;22887;-61
2021/06/06 01:09:27;;;;;;;15.20;5.37;;;;;;;13.70;61.58;100586.20;125839;1093;22767;-60
2021/06/06 01:12:05;;;;;;;13.30;5.73;;;;;;;13.68;62.04;100587.95;125924;1093;22757;-59
2021/06/06 01:14:39;;;;;;;12.60;5.10;;;;;;;13.62;61.73;100587.11;125928;1093;22802;-61
2021/06/06 01:17:13;;;;;;;13.10;5.80;;;;;;;13.58;61.94;100587.33;125996;1091;22855;-61
2021/06/06 01:19:48;;;;;;;12.05;5.55;;;;;;;13.54;61.95;100589.58;126108;1093;23009;-61
2021/06/06 01:22:45;;;;;;;13.85;5.50;;;;;;;13.47;62.01;100587.18;125960;1093;25820;-60
2021/06/06 01:25:24;;;;;;;14.80;5.70;;;;;;;13.40;62.29;100590.42;125542;1095;22769;-59
2021/06/06 01:28:03;;;;;;;11.50;5.63;;;;;;;13.32;62.49;100592.11;125646;1096;25842;-59
2021/06/06 01:30:39;;;;;;;13.30;5.40;;;;;;;13.25;62.67;100589.70;125751;1095;22906;-61
2021/06/06 01:33:17;;;;;;;14.13;6.53;;;;;;;13.20;62.95;100587.58;125603;1095;26226;-61
2021/06/06 01:35:53;;;;;;;18.00;6.20;;;;;;;13.12;63.21;100591.31;125568;1096;22841;-58
2021/06/06 01:38:29;;;;;;;13.43;5.43;;;;;;;13.05;63.10;100589.68;125606;1095;22787;-61
2021/06/06 01:41:05;;;;;;;15.30;7.05;;;;;;;13.04;63.38;100585.32;125564;1096;22752;-61
2021/06/06 01:43:40;;;;;;;14.07;5.83;;;;;;;13.00;63.15;100587.53;125653;1096;22890;-60
2021/06/06 01:46:15;;;;;;;13.87;6.23;;;;;;;12.99;63.40;100586.75;125573;1095;27316;-59
2021/06/06 01:48:47;;;;;;;16.70;7.20;;;;;;;12.98;63.42;100592.84;125713;1095;22767;-62
2021/06/06 01:51:23;;;;;;;18.30;7.80;;;;;;;13.01;64.11;100589.09;125897;1096;22763;-64
2021/06/06 01:53:57;;;;;;;17.00;7.47;;;;;;;12.99;64.18;100586.75;125671;1096;22834;-61
2021/06/06 01:56:35;;;;;;;17.10;7.55;;;;;;;12.97;63.82;100591.31;125540;1096;22797;-62
2021/06/06 01:59:12;;;;;;;12.70;6.50;;;;;;;12.93;64.06;100593.55;125653;1096;22774;-61
2021/06/06 02:01:43;;;;;;;15.73;6.70;;;;;;;12.86;64.50;100603.13;125793;1095;22764;-61
2021/06/06 02:04:15;;;;;;;12.35;6.30;;;;;;;12.77;65.02;100608.05;125935;1092;22788;-59
2021/06/06 02:06:49;;;;;;;13.10;5.55;;;;;;;12.68;65.24;100606.13;125999;1093;22828;-59
2021/06/06 02:09:24;;;;;;;15.35;6.85;;;;;;;12.67;65.06;100599.00;126071;1093;22790;-61
2021/06/06 02:11:57;;;;;;;18.40;7.15;;;;;;;12.68;65.25;100596.98;125877;1093;27127;-61
2021/06/06 02:14:32;;;;;;;15.60;6.67;;;;;;;12.65;64.92;100598.71;126125;1092;22848;-59
2021/06/06 02:17:09;;;;;;;13.47;6.07;;;;;;;12.64;65.05;100607.61;125965;1093;22771;-61
2021/06/06 02:19:44;;;;;;;13.45;6.05;;;;;;;12.59;65.53;100603.45;125822;1093;22790;-59
2021/06/06 02:22:17;;;;;;;13.35;6.10;;;;;;;12.56;65.82;100598.80;125904;1093;22777;-60
2021/06/06 02:24:48;;;;;;;12.65;5.85;;;;;;;12.57;65.57;100600.36;126147;1091;26280;-59
2021/06/06 02:27:26;;;;;;;13.35;6.20;;;;;;;12.59;65.98;100597.07;125779;1093;24168;-62
2021/06/06 02:30:11;;;;;;;16.33;6.37;;;;;;;12.58;65.76;100592.74;125801;1093;22781;-61
2021/06/06 02:32:51;;;;;;;11.30;4.80;;;;;;;12.57;65.69;100603.17;125948;1093;22768;-59
2021/06/06 02:35:22;;;;;;;;;;;;;;;12.60;65.39;100607.78;125804;1092;22764;-60
2021/06/06 02:37:57;;;;;;;12.80;5.60;;;;;;;12.61;65.60;100595.34;125952;1092;21521;-58
2021/06/06 02:40:32;;;;;;;15.25;5.85;;;;;;;12.57;65.80;100600.36;125854;1093;23534;-59
2021/06/06 02:43:08;;;;;;;14.30;5.43;;;;;;;12.57;65.85;100605.97;126096;1092;27265;-61
2021/06/06 02:45:40;;;;;;;14.03;6.73;;;;;;;12.59;65.86;100613.88;125908;1091;22861;-61
2021/06/06 02:48:16;;;;;;;13.90;5.80;;;;;;;12.54;65.97;100609.72;125974;1092;25823;-61
2021/06/06 02:50:50;;;;;;;12.45;5.85;;;;;;;12.51;65.98;100612.73;126024;1093;26229;-61
2021/06/06 02:53:24;;;;;;;10.90;4.90;;;;;;;12.49;65.72;100607.62;125871;1092;22794;-60
2021/06/06 02:55:59;;;;;;;12.70;5.90;;;;;;;12.50;65.73;100608.36;125847;1092;22800;-61
2021/06/06 02:58:36;;;;;;;14.35;6.55;;;;;;;12.48;65.47;100611.66;125984;1093;22784;-62
2021/06/06 03:01:11;;;;;;;14.13;5.77;;;;;;;12.46;65.74;100608.57;125956;1092;27547;-61
2021/06/06 03:03:44;;;;;;;13.77;6.03;;;;;;;12.49;65.65;100616.02;125820;1093;22787;-61
2021/06/06 03:06:20;;;;;;;14.30;6.03;;;;;;;12.46;66.14;100619.77;125888;1093;22822;-59
2021/06/06 03:08:51;;;;;;;13.80;6.65;;;;;;;12.42;66.48;100615.61;125831;1093;22941;-61
2021/06/06 03:11:24;;;;;;;14.70;6.20;;;;;;;12.41;66.22;100619.69;125894;1093;22854;-61
2021/06/06 03:14:00;;;;;;;14.40;5.65;;;;;;;12.40;66.24;100620.92;125996;1093;22764;-61
2021/06/06 03:16:36;;;;;;;12.13;6.00;;;;;;;12.37;66.66;100619.88;125794;1093;22763;-62
2021/06/06 03:19:08;;;;;;;12.43;5.93;;;;;;;12.37;66.44;100619.10;126052;1092;22794;-59
2021/06/06 03:21:44;;;;;;;15.80;6.73;;;;;;;12.32;67.18;100616.97;125795;1092;22848;-58
2021/06/06 03:24:19;;;;;;;20.87;7.33;;;;;;;12.28;67.76;100616.39;125874;1093;24430;-59
2021/06/06 03:26:52;;;;;;;16.03;7.57;;;;;;;12.21;68.23;100609.14;125859;1093;22805;-61
2021/06/06 03:29:27;;;;;;;16.20;7.65;;;;;;;12.16;68.39;100607.02;125904;1093;22778;-58
2021/06/06 03:32:01;;;;;;;15.77;7.60;;;;;;;12.15;68.72;100609.05;125992;1093;22908;-61
2021/06/06 03:34:32;;;;;;;18.97;7.70;;;;;;;12.13;68.54;100605.95;126063;1092;22767;-60
2021/06/06 03:37:04;;;;;;;19.20;8.10;;;;;;;12.13;68.58;100616.38;126043;1093;22784;-59
2021/06/06 03:39:36;;;;;;;17.03;8.07;;;;;;;12.12;68.55;100615.59;125848;1093;22818;-61
2021/06/06 03:42:07;;;;;;;14.77;7.17;;;;;;;12.12;68.59;100615.59;125778;1093;22775;-61
2021/06/06 03:44:41;;;;;;;16.10;7.30;;;;;;;12.14;69.08;100615.91;126102;1093;22764;-60
2021/06/06 03:47:14;;;;;;;15.55;7.15;;;;;;;12.16;68.84;100619.00;125862;1093;22811;-59
2021/06/06 03:49:45;;;;;;;17.80;7.45;;;;;;;12.21;68.57;100619.58;125775;1093;25802;-61
2021/06/06 03:52:16;;;;;;;16.37;8.10;;;;;;;12.25;68.60;100622.96;125803;1093;22774;-61
2021/06/06 03:54:48;;;;;;;15.10;7.33;;;;;;;12.30;68.59;100628.66;126090;1093;22831;-61
2021/06/06 03:57:20;;;;;;;14.67;7.20;;;;;;;12.36;68.97;100620.34;125900;1093;22764;-60
2021/06/06 03:59:51;;;;;;;14.70;7.33;;;;;;;12.43;68.80;100619.97;125811;1093;22764;-61
2021/06/06 04:02:22;;;;;;;16.37;8.10;;;;;;;12.46;68.98;100619.77;125787;1093;26242;-61
2021/06/06 04:04:55;;;;;;;15.35;7.55;;;;;;;12.49;69.11;100624.42;125858;1092;22818;-62
2021/06/06 04:07:26;;;;;;;16.80;7.80;;;;;;;12.57;69.43;100628.38;125900;1093;22783;-61
2021/06/06 04:10:00;;;;;;;17.10;7.33;;;;;;;12.64;69.39;100627.22;125829;1093;22864;-59
2021/06/06 04:12:31;;;;;;;16.57;7.63;;;;;;;12.74;69.09;100631.45;125792;1093;27325;-60
2021/06/06 04:15:04;;;;;;;17.10;7.65;;;;;;;12.81;69.55;100628.23;125816;1092;22861;-60
2021/06/06 04:17:36;;;;;;;17.53;7.00;;;;;;;12.88;69.49;100628.63;125945;1093;27463;-60
2021/06/06 04:20:10;;;;;;;17.30;6.65;;;;;;;12.97;69.00;100622.90;125820;1093;25848;-61
2021/06/06 04:22:41;;;;;;;14.63;7.20;;;;;;;13.09;69.00;100631.52;125880;1092;22783;-61
2021/06/06 04:25:18;;;;;;;18.13;6.57;;;;;;;13.20;69.55;100637.30;125909;1093;22834;-59
2021/06/06 04:27:50;;;;;;;;;;;;;;;13.31;70.21;100624.20;126038;1093;22861;-61
2021/06/06 04:30:23;;;;;;;16.60;8.20;;;;;;;13.39;69.91;100630.93;125813;1093;21480;-64
2021/06/06 04:32:54;;;;;;;15.70;6.25;;;;;;;13.47;69.53;100631.31;125933;1093;22820;-61
2021/06/06 04:35:24;;;;;;;13.95;5.90;;;;;;;13.58;69.57;100631.44;125804;1092;27154;-61
2021/06/06 04:37:55;;;;;;;13.73;7.10;;;;;;;13.71;70.00;100634.67;125822;1093;24204;-59
2021/06/06 04:40:26;;;;;;;14.93;6.60;;;;;;;13.81;69.85;100641.69;125746;1093;22841;-61
2021/06/06 04:42:57;;;;;;;16.60;7.77;;;;;;;13.90;70.01;100633.13;125949;1092;24178;-61
2021/06/06 04:45:28;;;;;;;15.23;7.33;;;;;;;13.99;70.09;100637.83;125853;1093;27628;-62
2021/06/06 04:48:14;;;;;;;15.40;8.03;;;;;;;14.12;70.25;100632.59;125830;1093;22770;-60
2021/06/06 04:50:46;;;;;;;13.05;7.25;;;;;;;14.27;70.26;100638.89;126157;1093;24678;-60
2021/06/06 04:53:17;;;;;;;18.55;7.20;;;;;;;14.38;69.77;100631.36;126012;1092;22770;-61
2021/06/06 04:55:51;;;;;;;17.50;8.05;;;;;;;14.50;70.08;100632.26;125957;1093;22791;-58
2021/06/06 04:58:25;;;;;;;14.27;6.43;;;;;;;14.65;70.37;100626.52;126141;1093;22810;-62
2021/06/06 05:00:57;;;;;;;15.83;8.18;;;;;;;14.85;70.14;100640.47;125941;1091;23385;-61
2021/06/06 05:03:29;;;;;;;16.87;7.53;;;;;;;15.01;70.03;100632.16;125973;1093;22761;-61
2021/06/06 05:06:00;;;;;;;15.00;7.60;;;;;;;15.13;69.79;100630.97;125881;1092;22847;-62
2021/06/06 05:08:34;;;;;;;20.40;7.90;;;;;;;15.30;69.32;100634.66;125882;1093;22838;-59
2021/06/06 05:11:05;;;;;;;16.05;8.00;;;;;;;15.47;69.20;100631.98;125847;1093;27179;-61
2021/06/06 05:13:37;;;;;;;15.40;7.50;;;;;;;15.65;69.60;100631.55;125903;1093;22797;-61
2021/06/06 05:16:10;;;;;;;18.50;9.30;;;;;;;15.84;69.77;100638.29;125833;1092;24401;-61
2021/06/06 05:18:42;;;;;;;17.40;8.80;;;;;;;16.02;68.96;100634.24;125951;1093;25842;-61
2021/06/06 05:21:16;;;;;;;20.60;8.30;;;;;;;16.19;68.67;100635.06;125950;1093;22969;-62
2021/06/06 05:23:46;;;;;;;16.75;8.50;;;;;;;16.36;68.63;100640.73;125953;1093;22880;-62
2021/06/06 05:26:18;;;;;;;17.50;9.40;;;;;;;16.52;68.19;100637.98;125783;1093;22854;-60
2021/06/06 05:28:50;;;;;;;16.60;8.80;;;;;;;16.68;68.00;100642.08;125800;1092;22770;-61
2021/06/06 05:31:22;;;;;;;16.93;8.80;;;;;;;16.85;67.95;100635.17;125841;1093;22769;-63
2021/06/06 05:33:53;;;;;;;18.05;8.40;;;;;;;17.02;67.68;100643.63;126495;1093;22783;-60
2021/06/06 05:36:24;;;;;;;17.43;8.97;;;;;;;17.15;67.54;100643.10;125864;1093;22928;-61
2021/06/06 05:38:58;;;;;;;19.27;9.77;;;;;;;17.26;66.80;100637.42;125858;1093;23286;-61
2021/06/06 05:41:29;;;;;;;20.05;7.20;;;;;;;17.36;66.86;100652.83;125820;1093;22781;-61
2021/06/06 05:44:00;;;;;;;16.90;8.30;;;;;;;17.48;67.35;100646.63;126010;1093;24427;-61
2021/06/06 05:46:31;;;;;;;17.37;8.47;;;;;;;17.63;66.50;100649.94;125885;1092;22772;-60
2021/06/06 05:49:03;;;;;;;17.27;8.87;;;;;;;17.70;66.09;100645.81;125938;1092;22764;-61
2021/06/06 05:51:34;;;;;;;17.60;9.37;;;;;;;17.73;66.38;100650.44;126063;1093;26506;-61
2021/06/06 05:54:05;;;;;;;18.45;8.25;;;;;;;17.77;66.56;100642.46;125733;1092;26220;-61
2021/06/06 05:56:36;;;;;;;17.85;8.65;;;;;;;17.92;65.85;100644.97;125980;1093;22794;-61
2021/06/06 05:59:08;;;;;;;18.65;9.15;;;;;;;18.02;66.03;100644.13;125816;1093;22716;-63
2021/06/06 06:01:38;;;;;;;17.45;8.00;;;;;;;18.16;66.00;100645.09;125981;1093;22769;-61
2021/06/06 06:04:09;;;;;;;16.75;8.90;;;;;;;18.30;65.31;100649.64;125922;1092;22819;-62
2021/06/06 06:06:40;;;;;;;15.50;8.35;;;;;;;18.40;65.25;100648.80;125914;1093;22864;-61
2021/06/06 06:09:12;;;;;;;16.35;8.60;;;;;;;18.50;65.09;100655.70;125906;1093;22813;-62
2021/06/06 06:11:43;;;;;;;16.95;8.05;;;;;;;18.62;65.49;100647.16;125856;1092;22794;-62
2021/06/06 06:14:17;;;;;;;18.60;9.35;;;;;;;18.74;65.23;100648.59;125860;1093;22774;-63
2021/06/06 06:16:48;;;;;;;18.40;8.25;;;;;;;18.85;65.22;100654.18;125776;1093;28953;-63
2021/06/06 06:19:19;;;;;;;16.35;8.45;;;;;;;18.96;64.59;100654.07;125931;1092;22794;-62
2021/06/06 06:21:52;;;;;;;16.03;7.63;;;;;;;19.00;64.53;100655.31;125799;1093;22918;-62
2021/06/06 06:24:23;;;;;;;18.00;9.57;;;;;;;19.10;64.22;100655.73;125919;1093;22861;-63
2021/06/06 06:26:55;;;;;;;14.25;7.65;;;;;;;19.18;64.18;100654.63;125882;1092;22768;-63
2021/06/06 06:29:27;;;;;;;14.40;7.20;;;;;;;19.33;64.25;100654.23;125863;1093;22745;-62
2021/06/06 06:31:59;;;;;;;28.60;10.70;;;;;;;19.47;63.76;100658.00;125914;1093;22851;-64
2021/06/06 06:34:30;;;;;;;21.75;10.80;;;;;;;19.59;63.62;100659.41;125831;1092;22819;-62
2021/06/06 06:37:01;;;;;;;18.53;10.10;;;;;;;19.70;63.13;100651.54;125859;1093;22755;-62
2021/06/06 06:39:32;;;;;;;15.85;8.10;;;;;;;19.76;63.44;100657.16;126023;1093;22855;-63
2021/06/06 06:42:04;;;;;;;17.35;8.85;;;;;;;19.88;63.20;100650.83;125896;1092;22811;-62
2021/06/06 06:44:35;;;;;;;20.40;10.05;;;;;;;20.00;62.99;100657.88;125686;1093;22825;-63
2021/06/06 06:47:06;;;;;;;20.35;11.65;;;;;;;20.15;62.38;100649.67;125746;1092;27214;-63
2021/06/06 06:49:37;;;;;;;19.95;11.15;;;;;;;20.26;62.09;100648.05;126283;1091;22770;-63
2021/06/06 06:52:09;;;;;;;15.55;8.35;;;;;;;20.36;62.11;100655.60;125889;1093;22794;-63
2021/06/06 06:54:41;;;;;;;25.55;13.70;;;;;;;20.42;61.65;100656.28;126044;1092;22773;-64
2021/06/06 06:57:12;;;;;;;15.45;7.25;;;;;;;20.49;61.39;100655.67;125886;1092;22768;-62
2021/06/06 06:59:43;;;;;;;15.67;5.83;;;;;;;20.57;61.56;100656.59;125945;1093;22771;-63
2021/06/06 07:02:15;;;;;;;12.90;5.80;;;;;;;20.63;61.51;100659.36;126035;1092;24408;-62
2021/06/06 07:04:46;;;;;;;14.80;5.00;;;;;;;20.71;61.14;100658.16;125932;1092;22770;-61
2021/06/06 07:07:24;;;;;;;11.57;6.13;;;;;;;20.77;60.90;100664.52;126021;1092;24431;-62
2021/06/06 07:10:04;;;;;;;13.15;5.00;;;;;;;20.81;60.64;100661.39;126363;1092;22799;-61
2021/06/06 07:12:35;;;;;;;15.70;6.70;;;;;;;20.89;60.44;100656.61;125921;1093;22790;-62
2021/06/06 07:15:08;;;;;;;15.10;5.97;;;;;;;20.95;60.56;100654.44;125926;1092;22764;-61
2021/06/06 07:17:39;;;;;;;11.35;5.05;;;;;;;21.06;60.35;100654.29;126047;1092;25970;-61
2021/06/06 07:20:15;;;;;;;12.63;5.30;;;;;;;21.19;60.09;100651.46;126410;1092;26264;-60
2021/06/06 07:22:49;;;;;;;11.57;4.40;;;;;;;21.30;59.78;100653.34;125938;1093;22776;-59
2021/06/06 07:25:22;;;;;;;10.55;5.15;;;;;;;21.41;59.53;100650.30;125777;1093;22780;-58
2021/06/06 07:27:55;;;;;;;10.47;4.10;;;;;;;21.46;58.60;100649.41;125900;1093;22886;-60
2021/06/06 07:30:31;;;;;;;10.68;4.63;;;;;;;21.48;59.03;100649.63;125736;1093;27211;-60
2021/06/06 07:33:03;;;;;;;10.57;4.77;;;;;;;21.54;58.70;100641.80;125757;1092;22771;-60
2021/06/06 07:35:38;;;;;;;13.60;5.60;;;;;;;21.63;58.59;100644.95;125896;1093;22948;-59
2021/06/06 07:38:10;;;;;;;11.33;5.20;;;;;;;21.74;58.44;100653.27;125834;1093;22965;-58
2021/06/06 07:40:45;;;;;;;9.83;4.98;;;;;;;21.87;58.29;100655.34;125732;1093;22843;-58
2021/06/06 07:43:24;;;;;;;11.68;5.00;;;;;;;21.96;57.67;100656.98;125852;1093;22950;-59
2021/06/06 07:45:56;;;;;;;11.30;4.93;;;;;;;21.95;57.39;100661.14;125960;1092;22774;-59
2021/06/06 07:48:29;;;;;;;9.97;3.53;;;;;;;21.98;56.94;100660.80;125735;1093;27354;-61
2021/06/06 07:51:04;;;;;;;9.90;3.78;;;;;;;22.01;56.95;100656.11;125837;1093;22807;-59
2021/06/06 07:53:35;;;;;;;12.58;5.58;;;;;;;22.04;55.99;100661.45;125865;1093;22769;-60
2021/06/06 07:56:07;;;;;;;11.23;5.15;;;;;;;22.00;56.24;100660.25;125620;1092;24476;-59
2021/06/06 07:58:41;;;;;;;12.15;4.78;;;;;;;22.03;56.17;100662.01;126410;1093;22774;-59
2021/06/06 08:01:15;;;;;;;12.05;4.90;;;;;;;22.10;56.06;100659.25;125817;1092;22803;-60
2021/06/06 08:03:47;;;;;;;9.13;4.18;;;;;;;22.18;55.86;100662.20;126193;1093;22761;-59
2021/06/06 08:06:21;;;;;;;7.30;3.10;;;;;;;22.25;55.05;100655.83;125778;1092;26686;-59
2021/06/06 08:08:55;;;;;;;6.43;2.78;;;;;;;22.33;54.76;100656.68;125868;1093;22776;-59
2021/06/06 08:11:27;;;;;;;9.00;3.17;;;;;;;22.38;54.26;100659.42;125869;1093;27750;-61
2021/06/06 08:13:58;;;;;;;9.05;3.18;;;;;;;22.41;54.06;100657.53;126144;1092;27210;-61
2021/06/06 08:16:29;;;;;;;8.85;3.45;;;;;;;22.47;53.39;100664.63;126379;1092;22771;-61
2021/06/06 08:19:00;;;;;;;7.38;2.78;;;;;;;22.48;53.35;100662.55;126260;1093;22854;-60
2021/06/06 08:21:37;;;;;;;9.25;3.25;;;;;;;22.50;52.67;100659.92;125979;1092;23204;-63
2021/06/06 08:24:13;;;;;;;7.83;3.08;;;;;;;22.54;52.67;100661.11;125858;1092;22772;-63
2021/06/06 08:26:45;;;;;;;9.38;3.25;;;;;;;22.62;52.63;100663.29;125861;1093;22858;-64
2021/06/06 08:29:15;;;;;;;7.43;2.90;;;;;;;22.72;52.50;100659.41;125878;1093;25880;-63
2021/06/06 08:31:49;;;;;;;14.05;3.38;;;;;;;22.85;52.71;100662.21;125761;1093;24454;-63
2021/06/06 08:34:21;;;;;;;11.33;2.93;;;;;;;23.00;52.03;100661.59;125735;1093;28493;-64
2021/06/06 08:36:57;;;;;;;8.78;3.48;;;;;;;23.12;51.71;100662.83;125878;1093;22832;-62
2021/06/06 08:39:30;;;;;;;8.20;3.13;;;;;;;23.24;51.94;100656.29;125794;1093;22771;-62
2021/06/06 08:42:08;;;;;;;8.48;3.45;;;;;;;23.31;51.27;100661.30;125817;1093;27201;-66
2021/06/06 08:44:43;;;;;;;7.28;2.68;;;;;;;23.48;51.14;100648.71;125846;1093;27201;-63
2021/06/06 08:47:21;;;;;;;8.05;3.53;;;;;;;23.56;50.93;100649.52;125720;1093;25887;-62
2021/06/06 08:49:58;;;;;;;8.10;3.23;;;;;;;23.70;50.93;100653.78;125856;1093;24499;-61
2021/06/06 08:52:42;;;;;;;8.50;3.00;;;;;;;23.87;50.91;100657.70;125947;1093;22762;-63
2021/06/06 08:55:32;;;;;;;11.25;3.25;;;;;;;23.94;49.66;100648.41;125842;1093;22780;-59
2021/06/06 08:58:18;;;;;;;7.88;2.70;;;;;;;24.04;49.68;100649.43;125894;1093;22770;-60
2021/06/06 09:00:59;;;;;;;6.18;2.53;;;;;;;24.14;49.52;100655.38;125848;1092;22811;-59
2021/06/06 09:03:32;;;;;;;8.58;2.90;;;;;;;24.16;48.72;100655.58;126000;1093;22774;-61
2021/06/06 09:06:07;;;;;;;8.40;2.75;;;;;;;24.01;48.51;100646.92;126053;1093;26548;-60
2021/06/06 09:08:39;;;;;;;7.28;2.50;;;;;;;23.92;48.56;100642.50;126003;1093;22794;-62
2021/06/06 09:11:14;;;;;;;7.88;2.35;;;;;;;23.94;48.41;100650.52;126012;1093;22735;-61
2021/06/06 09:13:46;;;;;;;8.50;2.88;;;;;;;23.91;48.21;100643.08;126136;1092;24226;-59
2021/06/06 09:16:21;;;;;;;8.30;2.88;;;;;;;23.72;48.04;100645.44;125918;1092;24435;-59
2021/06/06 09:19:07;;;;;;;7.57;2.80;;;;;;;23.63;47.91;100638.16;125939;1093;22829;-61
2021/06/06 09:21:52;;;;;;;6.00;2.33;;;;;;;23.55;48.64;100634.50;126273;1093;23269;-61
2021/06/06 09:24:34;;;;;;;8.18;2.90;;;;;;;23.64;48.48;100639.70;125939;1091;22797;-60
2021/06/06 09:27:15;;;;;;;7.48;2.30;;;;;;;23.81;48.10;100631.44;125843;1093;22852;-60
2021/06/06 09:29:58;;;;;;;6.50;2.30;;;;;;;24.09;47.75;100633.48;127289;1093;27629;-60
2021/06/06 09:32:30;;;;;;;7.18;2.75;;;;;;;24.33;47.52;100635.10;125908;1093;24294;-59
2021/06/06 09:35:09;;;;;;;5.45;1.93;;;;;;;24.46;47.24;100634.93;125912;1093;26286;-62
2021/06/06 09:37:49;;;;;;;6.00;2.20;;;;;;;24.57;46.79;100632.50;125910;1093;28799;-61
2021/06/06 09:40:34;;;;;;;5.28;2.30;;;;;;;24.70;47.24;100625.86;125905;1093;22790;-64
2021/06/06 09:43:07;;;;;;;5.90;2.08;;;;;;;24.76;46.27;100630.09;126037;1093;22803;-62
2021/06/06 09:45:41;;;;;;;9.35;2.63;;;;;;;24.78;46.01;100630.28;125775;1092;25874;-60
2021/06/06 09:48:27;;;;;;;5.63;2.05;;;;;;;24.81;45.38;100634.84;128428;1093;23103;-57
2021/06/06 09:51:12;;;;;;;6.53;1.90;;;;;;;24.78;44.86;100636.00;129291;1093;22502;-59
2021/06/06 09:53:44;;;;;;;4.47;1.73;;;;;;;24.75;44.72;100628.56;125769;1093;24470;-60
2021/06/06 09:56:24;;;;;;;4.38;1.53;;;;;;;24.75;43.78;100622.84;126764;1093;22880;-60
2021/06/06 09:59:06;;;;;;;5.38;1.40;;;;;;;24.71;43.65;100622.43;127001;1093;22780;-59
2021/06/06 10:01:47;;;;;;;5.28;1.78;;;;;;;24.73;43.78;100622.66;125629;1093;22777;-59
2021/06/06 10:04:27;;;;;;;4.63;1.80;;;;;;;24.76;43.53;100626.47;125237;1093;23238;-60
2021/06/06 10:07:09;;;;;;;4.73;1.80;;;;;;;24.78;43.54;100616.01;129722;1093;22594;-62
2021/06/06 10:09:42;;;;;;;6.08;2.13;;;;;;;24.75;43.06;100617.14;128448;1093;22803;-59
2021/06/06 10:12:26;;;;;;;3.95;1.53;;;;;;;24.82;42.83;100607.83;125675;1093;28086;-62
2021/06/06 10:15:02;;;;;;;8.03;1.70;;;;;;;24.91;42.67;100612.21;125841;1093;22857;-61
2021/06/06 10:17:41;;;;;;;5.50;1.40;;;;;;;24.94;41.66;100607.43;125930;1093;22815;-61
2021/06/06 10:20:18;;;;;;;6.75;1.40;;;;;;;24.82;41.19;100615.63;125921;1092;22806;-60
2021/06/06 10:22:53;;;;;;;5.60;1.45;;;;;;;24.72;40.92;100618.27;126019;1093;22787;-60
2021/06/06 10:25:29;;;;;;;7.75;1.50;;;;;;;24.67;40.59;100613.48;125775;1093;24573;-63
2021/06/06 10:28:04;;;;;;;4.45;1.50;;;;;;;24.64;41.26;100619.58;125719;1093;26249;-60
2021/06/06 10:30:39;;;;;;;3.80;1.53;;;;;;;24.66;40.75;100619.77;125763;1091;22810;-61
2021/06/06 10:33:19;;;;;;;4.77;1.37;;;;;;;24.64;40.56;100606.04;125914;1093;22887;-62
2021/06/06 10:35:51;;;;;;;4.83;1.60;;;;;;;24.65;41.07;100613.29;125995;1093;22798;-60
2021/06/06 10:38:22;;;;;;;4.78;1.75;;;;;;;24.64;40.67;100614.61;125696;1093;22792;-63
2021/06/06 10:40:57;;;;;;;5.50;1.55;;;;;;;24.61;40.58;100617.84;125786;1092;22831;-62
2021/06/06 10:43:37;;;;;;;9.55;1.83;;;;;;;24.64;40.88;100611.75;125414;1093;23219;-60
2021/06/06 10:46:16;;;;;;;10.15;2.00;;;;;;;24.67;40.69;100613.48;125532;1093;25920;-61
2021/06/06 10:48:52;;;;;;;4.78;1.60;;;;;;;24.65;40.61;100619.00;125635;1093;26278;-61
2021/06/06 10:51:35;;;;;;;6.75;1.50;;;;;;;24.64;40.63;100611.75;125641;1093;22776;-60
2021/06/06 10:54:25;;;;;;;5.33;1.90;;;;;;;24.66;40.59;100617.69;125574;1093;22869;-59
2021/06/06 10:56:58;;;;;;;7.30;2.07;;;;;;;24.68;40.65;100617.11;125578;1093;22811;-59
2021/06/06 10:59:36;;;;;;;7.13;2.30;;;;;;;24.70;39.99;100615.21;126063;1093;27837;-60
2021/06/06 11:02:09;;;;;;;5.98;1.78;;;;;;;24.61;39.28;100614.99;126001;1093;22793;-60
2021/06/06 11:04:53;;;;;;;6.00;1.60;;;;;;;24.45;39.49;100604.88;125898;1093;22888;-60
2021/06/06 11:07:42;;;;;;;4.65;1.48;;;;;;;24.40;39.79;100605.81;125630;1093;22774;-60
2021/06/06 11:10:35;;;;;;;5.53;1.98;;;;;;;24.42;40.13;100612.48;125890;1092;22784;-60
2021/06/06 11:13:31;;;;;;;7.80;1.73;;;;;;;24.41;39.91;100613.05;125823;1093;25449;-61
2021/06/06 11:16:08;;;;;;;4.15;1.50;;;;;;;24.45;39.87;100607.73;125889;1093;22787;-62
2021/06/06 11:18:53;;;;;;;7.07;1.50;;;;;;;24.44;40.00;100609.82;125857;1092;22807;-60
2021/06/06 11:21:37;;;;;;;5.43;1.68;;;;;;;24.39;39.40;100602.22;125769;1093;22877;-60
2021/06/06 11:24:23;;;;;;;3.85;1.23;;;;;;;24.42;39.54;100606.77;125637;1093;22809;-61
2021/06/06 11:27:17;;;;;;;6.83;1.43;;;;;;;24.46;39.33;100598.59;125594;1093;22803;-60
2021/06/06 11:29:53;;;;;;;5.00;1.28;;;;;;;24.46;39.05;100592.89;125715;1092;22842;-62
2021/06/06 11:32:30;;;;;;;4.88;1.60;;;;;;;24.53;39.53;100580.73;125671;1091;22934;-64
2021/06/06 11:35:27;;;;;;;3.78;1.25;;;;;;;24.64;39.11;100588.91;125746;1093;25855;-64
2021/06/06 11:38:01;;;;;;;3.38;1.03;;;;;;;24.70;38.04;100589.52;125625;1092;22771;-59
2021/06/06 11:40:43;;;;;;;4.45;1.50;;;;;;;24.69;37.65;100587.98;127182;1093;22871;-57
2021/06/06 11:43:32;;;;;;;4.33;1.20;;;;;;;24.69;37.51;100587.98;125553;1092;22761;-60
2021/06/06 11:46:22;;;;;;;4.73;1.20;;;;;;;24.72;37.42;100586.85;125784;1093;27326;-60